Flight Track Log - Related Links

Times and Time Zones

All times are in EST time to prevent confusion due to time zone crossing. See the N8854L flight status page for this flight to view local times or setup timezone preferences in your user account.

Time Position Orientation Groundspeed Altitude Reporting Facility
EST Latitude Longitude Course Direction KTS MPH feet Rate Location/Type
Wed 04:00:31 PM 44.1733 -107.0831 213° Southwest 79 91 11,200  Level Salt Lake Center
Wed 04:01:33 PM 44.1792 -107.1125 285° West 79 91 11,200 49 Level Salt Lake Center
Wed 04:02:34 PM 44.1889 -107.1461 292° West 86 99 11,300 -98 Climbing Salt Lake Center
Wed 04:03:36 PM 44.1975 -107.1792 290° West 89 102 11,000 -145 Descending Salt Lake Center
Wed 04:04:38 PM 44.2056 -107.2147 288° West 92 106 11,000 -49 Level Salt Lake Center
Wed 04:05:39 PM 44.2117 -107.2544 282° West 91 105 10,900 -98 Descending Salt Lake Center
Wed 04:06:00 PM 44.3975 -106.9584 213° Southwest  Level Estimated
Wed 04:06:41 PM 44.2208 -107.2900 290° West 93 107 10,800  Level Salt Lake Center
Wed 04:07:43 PM 44.2292 -107.3247 289° West 94 108 10,400 -341 Descending Salt Lake Center
Wed 04:08:44 PM 44.2372 -107.3650 286° West 99 114 10,100 -195 Descending Salt Lake Center
Wed 04:09:46 PM 44.2458 -107.4058 286° West 104 120 10,000 -194 Descending Salt Lake Center
Wed 04:10:48 PM 44.2528 -107.4458 284° West 106 122 9,700 -341 Descending Salt Lake Center
Wed 04:11:49 PM 44.2603 -107.4883 284° West 108 124 9,300 -390 Descending Salt Lake Center
Wed 04:12:51 PM 44.2714 -107.5328 289° West 114 131 8,900 -387 Descending Salt Lake Center
Wed 04:13:53 PM 44.2825 -107.5839 287° West 116 133 8,500 -195 Descending Salt Lake Center
Wed 04:14:54 PM 44.2942 -107.6289 290° West 119 137 8,500  Level Salt Lake Center
Wed 04:15:56 PM 44.3025 -107.6703 286° West 116 133 8,500  Level Salt Lake Center
Wed 04:16:58 PM 44.3067 -107.7125 278° West 113 130 8,500  Level Salt Lake Center
Wed 04:17:59 PM 44.3131 -107.7547 282° West 111 128 8,500  Level Salt Lake Center
Wed 04:19:01 PM 44.3239 -107.7942 291° West 110 127 8,500  Level Salt Lake Center
Wed 04:20:02 PM 44.3344 -107.8339 290° West 110 127 8,500  Level Salt Lake Center
Wed 04:21:04 PM 44.3450 -107.8842 286° West 111 128 8,500  Level Salt Lake Center
Wed 04:22:06 PM 44.3531 -107.9261 285° West 111 128 8,500 49 Level Salt Lake Center
Wed 04:23:07 PM 44.3622 -107.9678 287° West 112 129 8,600 98 Climbing Salt Lake Center
Wed 04:24:09 PM 44.3703 -108.0086 285° West 111 128 8,700 48 Climbing Salt Lake Center
Wed 04:25:11 PM 44.3750 -108.0483 279° West 108 124 8,700  Level Salt Lake Center
Wed 04:26:12 PM 44.3803 -108.0903 280° West 108 124 8,700  Level Salt Lake Center
Wed 04:27:14 PM 44.3861 -108.1311 281° West 108 124 8,700 -48 Level Salt Lake Center
Wed 04:28:16 PM 44.3928 -108.1736 282° West 109 125 8,600 -49 Descending Salt Lake Center
Wed 04:29:17 PM 44.4014 -108.2231 284° West 110 127 8,600  Level Salt Lake Center
Wed 04:30:19 PM 44.4081 -108.2633 283° West 108 124 8,600 -48 Level Salt Lake Center
Wed 04:31:21 PM 44.4147 -108.3050 283° West 108 124 8,500 -98 Descending Salt Lake Center
Wed 04:32:22 PM 44.4214 -108.3489 282° West 111 128 8,400 -98 Descending Salt Lake Center
Wed 04:33:24 PM 44.4278 -108.3947 281° West 115 132 8,300 -97 Descending Salt Lake Center

Login

Don't have an account? Register now (free) for customized features, flight alerts, and more!